Buckatunna, Mississippi
Current Conditions -  °F | °C
As of 9:53 AM on Tuesday 21 Oct 2014 (Local Time) from KHBG Reporting Station
Clear Clear  
Wind Chill: 67°   Ceiling: Unl
Heat Index: 67°   Visibility: 10mi
Dew Point: 55°   Wind: 3mph
Humidity: 66%   Direction: 20°NNE
Pressure: 30.1"   Gusts: NA
Location:  31.54°N, 88.53°W
Report Text: KHBG 211453Z AUTO 02003KT 10SM CLR 19/13 A3010 RMK AO2 SLP191 T01940128 51012
Loading
Personal Weather Stations






























Interactive Weather Map
Tropical Storm Tracking
New forecast layout! Learn more

10-Day Weather Forecast

Advertisements
Track Severe Weather on mobile